Time;durP1;ratioP1;P1;durP2;ratioP2;P2;SDS_P1;SDS_P2;PMS_P1;PMS_P2;Temp;Humidity;BMP_temperature;BMP_pressure;BME280_temperature;BME280_humidity;BME280_pressure;Samples;Min_cycle;Max_cycle;Signal;HPM_P1;HPM_P2
2020/12/28 00:02:12;;;;;;;10.70;1.90;;;;;;;2.60;75.44;98073.66;120134;1154;27234;-78
2020/12/28 00:04:41;;;;;;;8.20;2.00;;;;;;;2.60;75.61;98060.66;120146;1154;22945;-78
2020/12/28 00:07:11;;;;;;;8.00;1.57;;;;;;;2.63;75.41;98056.20;120206;1154;23157;-78
2020/12/28 00:09:40;;;;;;;7.47;1.60;;;;;;;2.66;75.87;98057.98;120579;1154;22887;-79
2020/12/28 00:12:09;;;;;;;6.07;1.60;;;;;;;2.68;75.80;98048.00;120619;1154;22983;-78
2020/12/28 00:14:39;;;;;;;9.55;1.65;;;;;;;2.69;75.58;98040.50;120058;1154;22974;-78
2020/12/28 00:17:11;;;;;;;8.30;2.10;;;;;;;2.71;75.65;98024.99;120234;1154;23947;-78
2020/12/28 00:19:40;;;;;;;8.20;1.60;;;;;;;2.74;75.83;98015.02;120030;1154;24511;-78
2020/12/28 00:22:09;;;;;;;10.57;1.70;;;;;;;2.76;75.48;98015.30;120180;1154;22947;-78
2020/12/28 00:24:39;;;;;;;7.58;1.47;;;;;;;2.80;75.90;98018.61;120022;1154;25969;-78
2020/12/28 00:27:08;;;;;;;6.10;1.60;;;;;;;2.83;75.77;98001.12;120170;1154;22948;-78
2020/12/28 00:29:37;;;;;;;8.20;1.80;;;;;;;2.85;75.41;98001.41;120148;1154;22964;-78
2020/12/28 00:32:06;;;;;;;9.50;1.90;;;;;;;2.86;75.50;98002.91;120130;1154;24443;-77
2020/12/28 00:34:35;;;;;;;9.05;1.90;;;;;;;2.88;75.47;97995.67;120098;1154;23038;-78
2020/12/28 00:37:04;;;;;;;8.77;1.80;;;;;;;2.89;75.60;97996.44;120091;1154;23014;-78
2020/12/28 00:39:33;;;;;;;11.73;2.13;;;;;;;2.91;75.60;97982.94;120131;1154;23023;-78
2020/12/28 00:42:01;;;;;;;9.47;1.80;;;;;;;2.93;75.69;97977.70;120145;1154;22939;-78
2020/12/28 00:44:30;;;;;;;9.30;1.95;;;;;;;2.95;75.24;97975.22;120092;1154;26172;-78
2020/12/28 00:47:01;;;;;;;13.60;3.00;;;;;;;2.97;75.77;97972.74;120187;1154;23103;-78
2020/12/28 00:49:30;;;;;;;12.47;2.90;;;;;;;3.00;75.30;97980.06;120165;1154;24624;-78
2020/12/28 00:51:59;;;;;;;10.40;2.25;;;;;;;3.02;75.89;97983.09;120137;1154;23053;-78
2020/12/28 00:54:27;;;;;;;14.10;2.90;;;;;;;3.03;75.94;97973.56;120141;1152;22967;-78
2020/12/28 00:56:56;;;;;;;7.70;1.80;;;;;;;3.04;75.70;97969.58;120095;1154;23025;-78
2020/12/28 00:59:25;;;;;;;11.23;2.23;;;;;;;3.03;75.67;97955.03;120102;1154;23098;-78
2020/12/28 01:01:56;;;;;;;11.35;2.50;;;;;;;3.06;75.54;97953.31;120350;1154;22964;-78
2020/12/28 01:04:24;;;;;;;;;;;;;;;3.06;75.72;97954.05;120173;1154;23049;-78
2020/12/28 01:06:53;;;;;;;8.37;2.03;;;;;;;3.06;75.89;97945.78;120311;1154;21598;-78
2020/12/28 01:09:22;;;;;;;11.40;2.35;;;;;;;3.09;75.78;97949.58;120238;1154;22970;-78
2020/12/28 01:11:52;;;;;;;11.20;2.37;;;;;;;3.10;75.73;97945.59;120179;1154;22998;-78
2020/12/28 01:14:21;;;;;;;9.98;2.05;;;;;;;3.13;75.69;97941.86;120301;1154;23125;-80
2020/12/28 01:16:50;;;;;;;9.47;2.10;;;;;;;3.15;75.78;97939.38;119916;1154;23006;-79
2020/12/28 01:19:19;;;;;;;10.40;2.37;;;;;;;3.16;75.75;97941.66;120622;1154;27340;-78
2020/12/28 01:21:48;;;;;;;11.63;2.43;;;;;;;3.18;75.56;97927.39;120107;1154;23668;-78
2020/12/28 01:24:17;;;;;;;9.90;2.20;;;;;;;3.19;75.75;97926.89;120093;1154;22974;-78
2020/12/28 01:26:46;;;;;;;10.27;2.27;;;;;;;3.20;76.12;97911.88;120093;1154;25680;-78
2020/12/28 01:29:15;;;;;;;11.30;2.50;;;;;;;3.20;75.96;97902.84;120146;1154;22939;-78
2020/12/28 01:31:44;;;;;;;8.55;1.65;;;;;;;3.22;75.96;97900.36;120138;1154;24629;-78
2020/12/28 01:34:13;;;;;;;9.67;2.20;;;;;;;3.23;76.02;97896.34;120064;1154;23054;-78
2020/12/28 01:36:42;;;;;;;7.50;1.60;;;;;;;3.24;75.96;97895.12;120116;1154;22945;-78
2020/12/28 01:39:11;;;;;;;9.83;2.07;;;;;;;3.25;75.71;97888.34;120114;1154;26924;-78
2020/12/28 01:41:40;;;;;;;9.37;2.07;;;;;;;3.28;76.00;97879.11;120062;1154;23418;-78
2020/12/28 01:44:09;;;;;;;9.87;1.90;;;;;;;3.30;75.96;97865.59;120175;1154;22942;-78
2020/12/28 01:46:38;;;;;;;9.37;1.97;;;;;;;3.33;75.87;97863.87;120224;1154;23896;-78
2020/12/28 01:49:07;;;;;;;9.33;1.70;;;;;;;3.34;75.88;97857.09;120355;1154;22967;-78
2020/12/28 01:51:37;;;;;;;6.85;1.50;;;;;;;3.34;75.95;97854.34;120057;1154;27505;-78
2020/12/28 01:54:06;;;;;;;12.43;2.40;;;;;;;3.38;75.93;97849.36;120365;1154;27285;-79
2020/12/28 01:56:36;;;;;;;9.47;2.03;;;;;;;3.39;75.63;97853.64;120157;1154;23860;-78
2020/12/28 01:59:05;;;;;;;9.80;2.00;;;;;;;3.40;75.61;97844.11;120095;1154;23033;-78
2020/12/28 02:01:39;;;;;;;8.57;1.70;;;;;;;3.42;75.93;97838.86;120178;1154;23010;-78
2020/12/28 02:04:08;;;;;;;10.00;1.73;;;;;;;3.43;75.59;97824.60;120143;1154;23815;-78
2020/12/28 02:06:38;;;;;;;8.07;1.63;;;;;;;3.44;75.51;97817.06;120170;1152;23002;-78
2020/12/28 02:09:07;;;;;;;8.63;1.90;;;;;;;3.44;75.66;97806.03;120233;1154;22909;-79
2020/12/28 02:11:35;;;;;;;7.03;1.43;;;;;;;3.43;75.34;97805.30;120300;1154;23107;-78
2020/12/28 02:14:05;;;;;;;6.50;1.37;;;;;;;3.43;75.70;97794.27;120077;1154;22947;-78
2020/12/28 02:16:33;;;;;;;9.83;1.63;;;;;;;3.43;75.71;97797.02;120051;1154;24353;-78
2020/12/28 02:19:03;;;;;;;8.70;1.80;;;;;;;3.42;75.34;97798.25;120171;1154;23976;-78
2020/12/28 02:21:38;;;;;;;8.65;1.70;;;;;;;3.41;75.62;97785.73;120490;1153;22994;-78
2020/12/28 02:24:07;;;;;;;7.20;1.83;;;;;;;3.38;75.56;97794.20;120131;1154;23253;-78
2020/12/28 02:26:37;;;;;;;7.50;1.60;;;;;;;3.35;75.61;97789.68;120129;1154;22905;-76
2020/12/28 02:29:06;;;;;;;8.03;1.35;;;;;;;3.33;75.33;97789.41;120137;1154;22889;-78
2020/12/28 02:31:34;;;;;;;7.30;1.50;;;;;;;3.29;75.63;97784.10;120112;1154;26979;-78
2020/12/28 02:34:04;;;;;;;6.80;1.37;;;;;;;3.28;75.88;97777.85;120074;1154;22998;-78
2020/12/28 02:36:32;;;;;;;7.53;1.47;;;;;;;3.26;75.74;97785.09;120111;1154;22934;-78
2020/12/28 02:39:02;;;;;;;6.70;1.63;;;;;;;3.25;75.54;97783.56;120138;1154;22945;-78
2020/12/28 02:41:30;;;;;;;7.10;1.40;;;;;;;3.22;75.54;97779.81;120301;1154;22973;-78
2020/12/28 02:43:59;;;;;;;8.60;1.80;;;;;;;3.22;75.62;97770.78;120106;1154;23048;-78
2020/12/28 02:46:30;;;;;;;9.33;1.20;;;;;;;3.20;75.98;97787.81;120199;1154;23006;-78
2020/12/28 02:48:58;;;;;;;7.77;1.40;;;;;;;3.19;75.66;97777.25;120134;1154;23053;-78
2020/12/28 02:51:28;;;;;;;5.55;1.30;;;;;;;3.19;76.28;97778.02;120115;1153;23181;-78
2020/12/28 02:53:57;;;;;;;6.10;1.10;;;;;;;3.20;76.15;97767.75;120110;1154;22958;-78
2020/12/28 02:56:26;;;;;;;5.17;1.33;;;;;;;3.21;75.75;97756.23;120223;1154;22977;-78
2020/12/28 02:58:54;;;;;;;6.20;1.20;;;;;;;3.21;75.73;97717.62;120578;1154;22923;-78
2020/12/28 03:01:23;;;;;;;10.00;1.40;;;;;;;3.23;75.51;97711.62;120194;1154;22953;-79
2020/12/28 03:03:52;;;;;;;7.10;1.20;;;;;;;3.24;75.98;97705.63;120284;1153;22945;-80
2020/12/28 03:06:21;;;;;;;8.87;1.53;;;;;;;3.24;75.88;97702.11;120444;1154;23071;-78
2020/12/28 03:08:50;;;;;;;6.33;1.30;;;;;;;3.24;76.00;97707.63;120127;1154;26037;-78
2020/12/28 03:11:18;;;;;;;8.13;1.70;;;;;;;3.24;75.94;97702.11;120146;1154;24621;-78
2020/12/28 03:13:47;;;;;;;6.50;1.33;;;;;;;3.23;75.84;97693.08;120142;1154;24607;-78
2020/12/28 03:16:16;;;;;;;5.27;1.27;;;;;;;3.21;76.04;97681.78;120228;1154;27276;-78
2020/12/28 03:18:45;;;;;;;6.50;1.60;;;;;;;3.20;75.89;97674.02;120032;1154;22972;-78
2020/12/28 03:21:15;;;;;;;6.10;1.37;;;;;;;3.17;75.69;97684.02;120384;1154;26357;-78
2020/12/28 03:23:45;;;;;;;7.40;1.60;;;;;;;3.15;75.92;97669.20;120325;1154;22974;-78
2020/12/28 03:26:14;;;;;;;7.25;1.40;;;;;;;3.12;76.05;97676.45;120188;1154;23106;-78
2020/12/28 03:28:43;;;;;;;8.30;1.50;;;;;;;3.12;75.97;97659.17;120145;1154;22952;-78
2020/12/28 03:31:12;;;;;;;7.03;1.50;;;;;;;3.12;76.40;97665.42;120170;1154;22941;-78
2020/12/28 03:33:41;;;;;;;6.77;1.33;;;;;;;3.12;76.63;97657.16;120215;1154;22976;-78
2020/12/28 03:36:09;;;;;;;6.25;1.65;;;;;;;3.13;76.48;97644.90;120350;1154;23060;-78
2020/12/28 03:38:38;;;;;;;3.70;1.00;;;;;;;3.14;76.19;97640.14;120321;1154;24833;-81
2020/12/28 03:41:11;;;;;;;6.53;1.20;;;;;;;3.16;76.16;97634.89;120169;1153;23050;-79
2020/12/28 03:43:40;;;;;;;8.83;1.50;;;;;;;3.18;76.24;97643.43;120131;1154;26398;-78
2020/12/28 03:46:09;;;;;;;8.20;1.43;;;;;;;3.20;76.67;97638.17;120180;1154;24763;-78
2020/12/28 03:48:38;;;;;;;6.27;1.23;;;;;;;3.23;76.69;97642.69;120010;1154;22991;-78
2020/12/28 03:51:07;;;;;;;6.35;1.40;;;;;;;3.23;76.27;97629.67;120046;1154;27400;-78
2020/12/28 03:53:36;;;;;;;6.23;1.20;;;;;;;3.26;76.28;97614.15;119997;1154;22948;-78
2020/12/28 03:56:05;;;;;;;8.37;1.27;;;;;;;3.29;76.79;97624.94;120484;1154;26008;-78
2020/12/28 03:58:34;;;;;;;4.17;1.10;;;;;;;3.32;76.64;97617.69;120406;1153;23032;-78
2020/12/28 04:01:04;;;;;;;6.47;1.20;;;;;;;3.34;76.48;97617.95;120136;1153;22963;-77
2020/12/28 04:03:33;;;;;;;7.47;1.52;;;;;;;3.38;76.71;97625.98;120242;1154;23052;-78
2020/12/28 04:06:02;;;;;;;4.97;1.20;;;;;;;3.40;76.49;97626.24;120264;1154;22976;-78
2020/12/28 04:08:31;;;;;;;7.30;1.30;;;;;;;3.40;76.58;97613.22;120476;1154;23000;-78
2020/12/28 04:11:00;;;;;;;6.30;1.20;;;;;;;3.43;76.34;97617.76;120089;1154;23047;-78
2020/12/28 04:13:29;;;;;;;4.77;1.07;;;;;;;3.45;76.57;97611.73;120106;1154;22967;-78
2020/12/28 04:15:59;;;;;;;4.90;1.20;;;;;;;3.46;76.37;97616.75;120054;1154;22995;-78
2020/12/28 04:18:28;;;;;;;4.90;1.12;;;;;;;3.48;76.76;97602.46;120315;1154;23141;-78
2020/12/28 04:20:57;;;;;;;6.90;1.27;;;;;;;3.48;76.70;97617.02;120100;1154;27717;-78
2020/12/28 04:23:26;;;;;;;5.45;1.30;;;;;;;3.49;76.56;97621.30;120126;1154;24668;-78
2020/12/28 04:25:55;;;;;;;6.97;1.10;;;;;;;3.51;76.43;97609.76;120056;1154;22945;-78
2020/12/28 04:28:26;;;;;;;4.50;0.80;;;;;;;3.51;76.54;97610.52;120164;1154;22950;-78
2020/12/28 04:30:55;;;;;;;6.40;1.10;;;;;;;3.53;76.62;97610.02;120077;1154;26053;-78
2020/12/28 04:33:25;;;;;;;9.20;1.07;;;;;;;3.54;76.50;97590.20;120085;1154;22973;-78
2020/12/28 04:35:54;;;;;;;7.63;1.07;;;;;;;3.57;76.56;97599.50;120084;1154;22994;-78
2020/12/28 04:38:23;;;;;;;7.83;1.50;;;;;;;3.58;76.37;97593.48;120060;1154;23034;-78
2020/12/28 04:40:53;;;;;;;9.60;1.50;;;;;;;3.60;76.48;97596.50;120115;1154;27225;-78
2020/12/28 04:43:25;;;;;;;6.63;1.30;;;;;;;3.60;76.51;97590.98;120070;1154;23011;-78
2020/12/28 04:45:57;;;;;;;9.00;1.60;;;;;;;3.61;76.71;97581.47;120144;1154;23109;-78
2020/12/28 04:48:27;;;;;;;6.57;1.30;;;;;;;3.62;76.21;97596.75;120209;1154;23227;-78
2020/12/28 04:50:59;;;;;;;6.53;1.20;;;;;;;3.64;76.52;97593.52;120380;1154;23118;-78
2020/12/28 04:53:29;;;;;;;5.60;1.10;;;;;;;3.65;76.48;97606.81;120288;1154;22998;-78
2020/12/28 04:55:59;;;;;;;6.73;1.17;;;;;;;3.68;76.39;97603.08;120244;1154;22956;-78
2020/12/28 04:58:28;;;;;;;5.43;1.00;;;;;;;3.70;76.54;97610.84;120166;1154;22977;-78
2020/12/28 05:00:59;;;;;;;4.20;1.00;;;;;;;3.72;76.47;97609.11;120098;1154;22977;-78
2020/12/28 05:03:28;;;;;;;4.00;1.00;;;;;;;3.73;76.52;97602.33;120287;1154;23348;-78
2020/12/28 05:05:57;;;;;;;3.65;1.00;;;;;;;3.76;76.37;97595.06;120153;1154;22951;-78
2020/12/28 05:08:26;;;;;;;3.43;0.73;;;;;;;3.77;76.35;97586.28;120170;1154;22941;-79
2020/12/28 05:10:54;;;;;;;5.33;1.30;;;;;;;3.76;76.10;97592.30;120152;1154;26487;-78
2020/12/28 05:13:23;;;;;;;6.00;1.17;;;;;;;3.77;76.11;97588.28;120052;1154;22963;-78
2020/12/28 05:15:55;;;;;;;5.20;1.00;;;;;;;3.76;76.47;97595.06;120031;1154;22991;-78
2020/12/28 05:18:24;;;;;;;5.87;1.20;;;;;;;3.77;76.15;97597.32;120077;1154;22917;-78
2020/12/28 05:20:53;;;;;;;3.73;0.87;;;;;;;3.78;76.37;97579.52;120066;1154;23076;-78
2020/12/28 05:23:22;;;;;;;6.35;1.00;;;;;;;3.79;76.71;97586.54;120108;1154;23078;-78
2020/12/28 05:25:53;;;;;;;5.70;1.10;;;;;;;3.80;76.22;97590.82;120157;1154;23014;-78
2020/12/28 05:28:26;;;;;;;4.30;1.20;;;;;;;3.82;76.26;97599.36;120157;1154;23066;-78
2020/12/28 05:30:59;;;;;;;5.03;1.10;;;;;;;3.82;76.45;97588.31;120172;1154;22961;-78
2020/12/28 05:33:33;;;;;;;5.20;0.80;;;;;;;3.84;76.28;97590.57;120375;1154;22955;-78
2020/12/28 05:36:02;;;;;;;5.17;1.27;;;;;;;3.83;76.18;97592.57;120245;1153;22974;-78
2020/12/28 05:38:32;;;;;;;6.20;1.10;;;;;;;3.84;76.09;97602.38;120116;1154;24620;-78
2020/12/28 05:41:05;;;;;;;5.58;1.30;;;;;;;3.84;76.15;97599.61;120180;1154;27404;-78
2020/12/28 05:43:34;;;;;;;5.83;1.10;;;;;;;3.87;76.28;97612.40;120144;1154;25387;-78
2020/12/28 05:46:03;;;;;;;4.80;0.95;;;;;;;3.88;76.01;97608.41;120057;1154;22935;-78
2020/12/28 05:48:36;;;;;;;6.00;1.17;;;;;;;3.91;76.03;97628.73;119984;1154;22998;-76
2020/12/28 05:51:06;;;;;;;6.10;1.03;;;;;;;3.93;76.12;97615.20;119896;1154;23406;-78
2020/12/28 05:53:42;;;;;;;5.40;1.10;;;;;;;3.94;76.06;97620.21;119895;1154;23017;-77
2020/12/28 05:56:11;;;;;;;4.90;1.13;;;;;;;3.96;76.21;97628.75;120022;1154;22976;-78
2020/12/28 05:58:44;;;;;;;6.60;1.50;;;;;;;3.97;76.00;97626.75;119917;1154;23047;-76
2020/12/28 06:01:20;;;;;;;6.97;1.40;;;;;;;3.98;76.22;97628.24;120081;1154;24002;-79
2020/12/28 06:03:51;;;;;;;8.43;1.30;;;;;;;3.97;75.87;97621.96;120699;1154;22950;-77
2020/12/28 06:06:22;;;;;;;4.77;1.10;;;;;;;4.00;75.83;97620.22;120081;1154;24380;-78
2020/12/28 06:08:52;;;;;;;5.78;1.22;;;;;;;4.00;76.04;97626.50;120151;1154;23424;-76
2020/12/28 06:11:22;;;;;;;5.15;1.20;;;;;;;4.02;75.82;97621.23;120125;1154;23053;-78
2020/12/28 06:13:50;;;;;;;5.92;1.10;;;;;;;4.04;76.02;97615.20;119976;1153;22994;-79
2020/12/28 06:16:24;;;;;;;4.65;0.90;;;;;;;4.06;75.93;97615.46;119905;1154;27299;-75
2020/12/28 06:18:57;;;;;;;4.93;1.10;;;;;;;4.08;75.82;97622.00;120116;1154;23119;-78
2020/12/28 06:21:36;;;;;;;5.20;1.20;;;;;;;4.09;75.97;97618.00;120065;1154;26082;-78
2020/12/28 06:24:06;;;;;;;5.77;1.10;;;;;;;4.10;76.04;97619.49;120117;1154;23815;-78
2020/12/28 06:26:35;;;;;;;6.83;1.30;;;;;;;4.10;75.90;97613.97;120035;1154;23016;-78
2020/12/28 06:29:09;;;;;;;7.47;1.57;;;;;;;4.10;75.71;97624.25;120071;1154;23418;-78
2020/12/28 06:31:38;;;;;;;8.80;1.60;;;;;;;4.10;75.87;97636.06;120778;1154;23164;-78
2020/12/28 06:34:17;;;;;;;6.17;1.23;;;;;;;4.10;75.70;97630.54;120529;1154;23106;-79
2020/12/28 06:36:47;;;;;;;6.10;1.30;;;;;;;4.12;76.01;97638.31;121010;1154;26693;-79
2020/12/28 06:39:16;;;;;;;6.95;1.45;;;;;;;4.13;75.71;97633.55;120946;1154;23109;-79
2020/12/28 06:41:45;;;;;;;9.30;1.45;;;;;;;4.15;75.87;97636.57;120689;1154;26386;-79
2020/12/28 06:44:26;;;;;;;8.27;1.77;;;;;;;4.17;75.65;97636.83;120397;1154;24827;-79
2020/12/28 06:46:55;;;;;;;7.80;1.75;;;;;;;4.17;75.78;97642.34;120795;1154;22945;-78
2020/12/28 06:49:24;;;;;;;6.97;1.50;;;;;;;4.17;75.67;97639.59;120292;1154;22941;-78
2020/12/28 06:51:53;;;;;;;8.37;1.70;;;;;;;4.15;75.88;97631.81;120282;1154;22957;-79
2020/12/28 06:54:25;;;;;;;5.40;1.40;;;;;;;4.17;75.62;97620.27;120192;1154;22961;-78
2020/12/28 06:56:54;;;;;;;7.00;1.50;;;;;;;4.17;75.63;97620.27;120294;1154;23476;-78
2020/12/28 06:59:23;;;;;;;8.90;1.60;;;;;;;4.16;75.63;97630.55;120475;1154;25992;-79
2020/12/28 07:01:52;;;;;;;9.20;2.40;;;;;;;4.16;75.45;97629.81;120677;1154;22973;-79
2020/12/28 07:04:21;;;;;;;7.70;1.97;;;;;;;4.14;75.47;97630.28;120635;1154;22948;-78
2020/12/28 07:06:58;;;;;;;6.60;1.37;;;;;;;4.15;75.67;97636.57;120848;1154;23051;-79
2020/12/28 07:09:26;;;;;;;6.63;1.40;;;;;;;4.15;75.59;97644.85;120283;1154;22944;-77
2020/12/28 07:11:55;;;;;;;6.87;1.60;;;;;;;4.14;75.79;97632.31;120120;1154;22980;-79
2020/12/28 07:14:24;;;;;;;8.85;2.10;;;;;;;4.14;75.47;97629.56;120150;1154;26487;-79
2020/12/28 07:16:56;;;;;;;13.93;2.23;;;;;;;4.13;75.67;97633.55;120225;1154;23016;-78
2020/12/28 07:19:26;;;;;;;13.30;2.85;;;;;;;4.10;75.58;97633.30;120201;1154;22978;-78
2020/12/28 07:21:55;;;;;;;11.40;2.95;;;;;;;4.09;75.56;97623.52;120426;1154;22957;-78
2020/12/28 07:24:24;;;;;;;13.43;2.37;;;;;;;4.09;75.66;97618.00;120222;1154;22952;-78
2020/12/28 07:26:54;;;;;;;10.45;2.05;;;;;;;4.08;75.70;97621.23;120286;1152;25929;-78
2020/12/28 07:29:23;;;;;;;11.38;2.52;;;;;;;4.08;75.72;97630.28;120297;1154;22964;-78
2020/12/28 07:32:04;;;;;;;10.23;2.27;;;;;;;4.09;76.07;97636.56;120210;1154;23148;-78
2020/12/28 07:34:33;;;;;;;14.90;3.17;;;;;;;4.08;75.73;97633.05;120268;1154;22942;-78
2020/12/28 07:37:03;;;;;;;17.10;3.53;;;;;;;4.09;75.76;97628.28;120299;1154;27057;-78
2020/12/28 07:39:33;;;;;;;23.12;8.00;;;;;;;4.10;75.68;97618.73;120641;1154;24770;-79
2020/12/28 07:42:02;;;;;;;21.12;6.75;;;;;;;4.10;75.68;97608.45;120451;1154;22967;-78
2020/12/28 07:44:31;;;;;;;15.00;2.95;;;;;;;4.09;75.53;97584.87;120316;1154;22914;-79
2020/12/28 07:47:04;;;;;;;16.15;2.95;;;;;;;4.08;75.61;97588.11;120204;1154;26185;-78
2020/12/28 07:49:42;;;;;;;13.57;2.57;;;;;;;4.04;75.42;97585.60;120240;1154;23106;-78
2020/12/28 07:52:13;;;;;;;12.83;2.40;;;;;;;4.00;75.64;97579.58;120212;1154;23024;-78
2020/12/28 07:54:47;;;;;;;9.27;2.50;;;;;;;3.99;75.68;97583.57;120360;1154;22963;-78
2020/12/28 07:57:28;;;;;;;12.33;2.33;;;;;;;3.98;75.59;97573.80;120274;1154;23063;-78
2020/12/28 08:00:05;;;;;;;13.60;3.53;;;;;;;3.96;75.60;97581.06;120220;1154;23075;-78
2020/12/28 08:02:46;;;;;;;18.20;3.85;;;;;;;3.95;75.85;97563.02;120342;1154;22941;-78
2020/12/28 08:05:18;;;;;;;16.00;3.45;;;;;;;3.92;75.85;97558.47;120440;1154;23681;-78
2020/12/28 08:07:47;;;;;;;15.40;3.70;;;;;;;3.92;75.96;97558.47;120259;1154;22942;-78
2020/12/28 08:10:16;;;;;;;14.57;3.27;;;;;;;3.90;75.98;97561.74;120196;1154;25906;-78
2020/12/28 08:12:58;;;;;;;17.85;4.55;;;;;;;3.89;76.00;97560.22;120230;1154;22947;-78
2020/12/28 08:15:30;;;;;;;16.13;3.87;;;;;;;3.89;75.84;97565.01;120338;1154;22959;-79
2020/12/28 08:18:11;;;;;;;11.30;2.43;;;;;;;3.88;75.83;97560.73;120261;1154;22953;-79
2020/12/28 08:20:42;;;;;;;12.90;3.30;;;;;;;3.87;75.89;97567.52;120224;1154;22970;-78
2020/12/28 08:23:11;;;;;;;11.00;2.80;;;;;;;3.89;76.13;97560.22;120210;1154;26217;-78
2020/12/28 08:25:43;;;;;;;22.10;4.40;;;;;;;3.91;75.91;97554.22;120223;1154;27794;-78
2020/12/28 08:28:11;;;;;;;19.20;4.85;;;;;;;3.93;76.01;97562.75;120210;1154;23036;-79
2020/12/28 08:30:42;;;;;;;20.33;4.80;;;;;;;3.93;75.91;97571.03;120334;1154;22942;-78
2020/12/28 08:33:11;;;;;;;24.30;7.20;;;;;;;3.95;76.17;97579.57;120343;1154;22998;-78
2020/12/28 08:35:48;;;;;;;17.47;5.00;;;;;;;3.96;76.27;97584.58;120475;1151;23021;-78
2020/12/28 08:38:18;;;;;;;19.73;4.87;;;;;;;3.99;75.97;97588.36;120513;1154;25523;-78
2020/12/28 08:40:57;;;;;;;18.05;4.42;;;;;;;4.01;76.15;97589.34;120479;1154;22973;-78
2020/12/28 08:43:26;;;;;;;21.37;4.93;;;;;;;4.05;76.03;97589.89;121007;1154;23015;-78
2020/12/28 08:46:06;;;;;;;20.30;5.57;;;;;;;4.08;76.07;97577.83;120480;1154;23076;-77
2020/12/28 08:48:35;;;;;;;18.15;5.05;;;;;;;4.09;76.07;97565.55;120754;1154;22905;-78
2020/12/28 08:51:14;;;;;;;15.90;4.50;;;;;;;4.13;76.06;97568.05;120903;1154;27298;-78
2020/12/28 08:53:48;;;;;;;31.60;9.57;;;;;;;4.14;76.04;97550.22;120481;1154;27228;-78
2020/12/28 08:56:18;;;;;;;17.53;4.80;;;;;;;4.18;75.94;97544.47;120546;1154;23102;-77
2020/12/28 08:58:47;;;;;;;12.47;3.17;;;;;;;4.20;75.88;97555.77;120250;1154;22961;-78
2020/12/28 09:01:16;;;;;;;13.80;3.23;;;;;;;4.24;76.01;97564.55;120222;1154;22949;-79
2020/12/28 09:03:48;;;;;;;10.15;2.20;;;;;;;4.28;75.73;97562.30;120909;1154;23141;-78
2020/12/28 09:06:25;;;;;;;11.73;2.77;;;;;;;4.32;75.97;97568.33;121502;1154;22946;-79
2020/12/28 09:08:55;;;;;;;10.47;2.37;;;;;;;4.34;75.76;97566.58;121320;1154;23077;-80
2020/12/28 09:11:24;;;;;;;10.43;2.60;;;;;;;4.37;75.48;97571.08;121592;1154;24354;-78
2020/12/28 09:13:59;;;;;;;12.13;2.80;;;;;;;4.42;75.60;97564.05;120901;1154;23022;-79
2020/12/28 09:16:31;;;;;;;9.50;2.50;;;;;;;4.45;75.67;97554.78;120896;1154;22944;-79
2020/12/28 09:19:00;;;;;;;5.93;1.40;;;;;;;4.48;75.68;97556.52;121010;1154;23009;-79
2020/12/28 09:21:33;;;;;;;11.20;2.33;;;;;;;4.49;75.72;97533.17;120962;1154;23050;-80
2020/12/28 09:24:03;;;;;;;10.10;2.20;;;;;;;4.51;75.51;97545.21;121122;1154;23218;-79
2020/12/28 09:26:32;;;;;;;9.30;2.60;;;;;;;4.55;75.18;97547.73;121380;1154;22930;-79
2020/12/28 09:29:09;;;;;;;9.60;2.40;;;;;;;4.58;75.59;97547.48;121374;1154;23522;-80
2020/12/28 09:31:38;;;;;;;9.77;2.00;;;;;;;4.61;75.55;97551.25;121263;1154;26178;-79
2020/12/28 09:34:09;;;;;;;9.03;1.82;;;;;;;4.63;75.49;97557.02;121451;1154;27279;-79
2020/12/28 09:36:39;;;;;;;6.93;1.70;;;;;;;4.66;75.57;97562.29;121399;1154;22903;-78
2020/12/28 09:39:08;;;;;;;10.47;2.13;;;;;;;4.70;75.41;97562.03;121319;1154;22939;-79
2020/12/28 09:41:38;;;;;;;6.95;1.67;;;;;;;4.72;75.32;97565.80;121205;1154;22969;-78
2020/12/28 09:44:07;;;;;;;9.47;2.37;;;;;;;4.75;75.34;97552.98;121337;1154;22918;-77
2020/12/28 09:46:37;;;;;;;14.53;4.13;;;;;;;4.77;75.19;97551.23;121100;1154;22952;-78
2020/12/28 09:49:06;;;;;;;13.00;3.20;;;;;;;4.79;75.09;97554.25;120710;1154;23047;-77
2020/12/28 09:51:38;;;;;;;12.57;2.53;;;;;;;4.81;75.23;97557.26;121249;1154;23005;-79
2020/12/28 09:54:07;;;;;;;9.57;2.57;;;;;;;4.83;74.98;97557.50;121420;1154;23003;-78
2020/12/28 09:56:36;;;;;;;11.40;3.30;;;;;;;4.86;75.23;97550.22;121421;1154;25360;-77
2020/12/28 09:59:05;;;;;;;12.30;3.30;;;;;;;4.88;75.09;97553.23;120534;1154;22953;-77
2020/12/28 10:01:34;;;;;;;12.90;2.70;;;;;;;4.90;74.95;97545.19;120599;1154;22970;-77
2020/12/28 10:04:03;;;;;;;9.03;2.03;;;;;;;4.91;74.63;97543.91;120502;1154;25676;-78
2020/12/28 10:06:32;;;;;;;11.05;2.60;;;;;;;4.91;75.34;97544.67;120313;1154;26497;-77
2020/12/28 10:09:01;;;;;;;9.33;1.87;;;;;;;4.93;74.67;97544.16;120485;1154;24223;-78
2020/12/28 10:11:30;;;;;;;9.10;2.30;;;;;;;4.91;74.73;97530.09;120416;1154;22961;-78
2020/12/28 10:13:59;;;;;;;10.47;2.93;;;;;;;4.91;74.67;97530.85;120385;1152;22936;-78
2020/12/28 10:16:29;;;;;;;11.13;2.70;;;;;;;4.90;74.78;97526.56;120409;1154;24371;-77
2020/12/28 10:18:59;;;;;;;7.08;1.75;;;;;;;4.89;74.46;97527.84;120471;1154;22974;-77
2020/12/28 10:21:30;;;;;;;10.03;2.37;;;;;;;4.89;74.38;97532.61;120348;1154;24813;-77
2020/12/28 10:23:59;;;;;;;8.73;2.17;;;;;;;4.90;74.48;97525.84;120298;1154;22975;-77
2020/12/28 10:26:29;;;;;;;8.20;2.40;;;;;;;4.89;74.31;97521.55;120476;1154;22994;-77
2020/12/28 10:28:59;;;;;;;8.53;2.10;;;;;;;4.87;74.57;97513.77;120978;1154;25925;-77
2020/12/28 10:31:28;;;;;;;11.70;2.90;;;;;;;4.87;74.31;97507.48;120469;1154;23032;-77
2020/12/28 10:33:57;;;;;;;15.05;4.70;;;;;;;4.86;74.26;97500.47;120832;1154;23044;-77
2020/12/28 10:36:28;;;;;;;11.07;2.93;;;;;;;4.86;73.79;97492.17;120596;1154;27637;-78
2020/12/28 10:39:00;;;;;;;12.13;3.40;;;;;;;4.85;73.86;97499.70;120273;1154;22977;-78
2020/12/28 10:41:32;;;;;;;9.80;1.90;;;;;;;4.84;73.93;97495.42;120316;1154;23007;-78
2020/12/28 10:44:02;;;;;;;9.75;2.45;;;;;;;4.84;73.75;97502.98;120503;1154;23378;-78
2020/12/28 10:46:31;;;;;;;11.73;3.00;;;;;;;4.83;73.84;97490.41;120335;1154;22960;-78
2020/12/28 10:49:01;;;;;;;6.80;1.80;;;;;;;4.82;73.56;97488.92;120536;1154;22927;-78
2020/12/28 10:51:30;;;;;;;11.37;2.10;;;;;;;4.82;73.84;97481.36;120310;1154;23106;-78
2020/12/28 10:53:59;;;;;;;10.93;2.40;;;;;;;4.82;73.59;97480.63;120180;1154;23005;-78
2020/12/28 10:56:30;;;;;;;12.37;2.87;;;;;;;4.82;73.61;97467.54;120185;1154;25785;-79
2020/12/28 10:59:02;;;;;;;13.10;2.95;;;;;;;4.82;73.72;97470.30;120246;1154;22974;-77
2020/12/28 11:01:33;;;;;;;11.37;2.67;;;;;;;4.80;73.70;97461.03;120178;1154;23447;-77
2020/12/28 11:04:02;;;;;;;12.37;2.77;;;;;;;4.77;73.65;97462.03;120205;1154;22936;-78
2020/12/28 11:06:32;;;;;;;11.73;3.10;;;;;;;4.76;73.80;97449.46;120214;1154;23567;-77
2020/12/28 11:09:01;;;;;;;10.93;3.13;;;;;;;4.75;73.97;97459.02;120117;1154;24107;-78
2020/12/28 11:11:30;;;;;;;12.37;3.00;;;;;;;4.75;73.93;97465.31;120288;1154;22967;-77
2020/12/28 11:13:59;;;;;;;10.60;2.50;;;;;;;4.73;73.89;97467.83;120247;1154;24630;-77
2020/12/28 11:16:28;;;;;;;13.60;4.07;;;;;;;4.72;73.74;97452.49;120480;1154;22977;-77
2020/12/28 11:18:58;;;;;;;13.83;3.30;;;;;;;4.72;73.71;97451.73;120464;1153;22948;-77
2020/12/28 11:21:27;;;;;;;12.10;3.27;;;;;;;4.71;73.46;97441.95;120320;1154;23897;-77
2020/12/28 11:24:00;;;;;;;17.73;4.90;;;;;;;4.70;73.77;97437.67;120380;1154;22945;-77
2020/12/28 11:26:30;;;;;;;16.50;4.90;;;;;;;4.67;73.67;97444.23;122601;1154;22897;-78
2020/12/28 11:29:01;;;;;;;16.00;4.65;;;;;;;4.63;73.80;97443.73;120337;1154;22942;-78
2020/12/28 11:31:31;;;;;;;15.47;5.03;;;;;;;4.63;73.77;97454.79;120449;1154;23125;-77
2020/12/28 11:34:00;;;;;;;15.50;4.10;;;;;;;4.63;73.99;97454.79;120361;1154;26429;-77
2020/12/28 11:36:29;;;;;;;15.33;4.57;;;;;;;4.62;73.84;97437.45;120164;1154;23346;-77
2020/12/28 11:38:58;;;;;;;17.97;5.60;;;;;;;4.61;73.77;97426.91;120266;1154;23079;-77
2020/12/28 11:41:27;;;;;;;17.47;4.93;;;;;;;4.59;73.62;97423.91;120191;1154;23003;-77
2020/12/28 11:43:56;;;;;;;20.08;5.90;;;;;;;4.57;73.66;97426.42;120305;1154;22953;-77
2020/12/28 11:46:25;;;;;;;14.77;4.00;;;;;;;4.53;72.97;97425.93;120177;1154;22984;-77